sensor_id;sensor_type;location;lat;lon;timestamp;temperature;humidity
60287;DHT22;46141;52.382;5.270;2022-09-09T00:04:15;24.00;69.00
60287;DHT22;46141;52.382;5.270;2022-09-09T00:09:28;24.00;69.10
60287;DHT22;46141;52.382;5.270;2022-09-09T00:12:01;24.00;69.10
60287;DHT22;46141;52.382;5.270;2022-09-09T00:14:48;24.00;69.10
60287;DHT22;46141;52.382;5.270;2022-09-09T00:17:40;24.00;69.10
60287;DHT22;46141;52.382;5.270;2022-09-09T00:23:08;24.00;69.10
60287;DHT22;46141;52.382;5.270;2022-09-09T00:28:28;24.00;69.30
60287;DHT22;46141;52.382;5.270;2022-09-09T00:30:56;24.00;69.30
60287;DHT22;46141;52.382;5.270;2022-09-09T00:33:25;24.00;69.30
60287;DHT22;46141;52.382;5.270;2022-09-09T00:35:56;24.00;69.20
60287;DHT22;46141;52.382;5.270;2022-09-09T00:38:35;24.00;69.20
60287;DHT22;46141;52.382;5.270;2022-09-09T00:41:08;24.00;69.20
60287;DHT22;46141;52.382;5.270;2022-09-09T00:43:38;24.00;69.10
60287;DHT22;46141;52.382;5.270;2022-09-09T00:49:30;23.90;69.20
60287;DHT22;46141;52.382;5.270;2022-09-09T00:57:32;23.90;69.40
60287;DHT22;46141;52.382;5.270;2022-09-09T01:05:32;23.90;69.30
60287;DHT22;46141;52.382;5.270;2022-09-09T01:08:02;23.90;69.20
60287;DHT22;46141;52.382;5.270;2022-09-09T01:11:00;23.90;69.30
60287;DHT22;46141;52.382;5.270;2022-09-09T01:13:29;23.90;69.30
60287;DHT22;46141;52.382;5.270;2022-09-09T01:15:58;23.90;69.20
60287;DHT22;46141;52.382;5.270;2022-09-09T01:18:35;23.80;69.20
60287;DHT22;46141;52.382;5.270;2022-09-09T01:26:59;23.80;69.20
60287;DHT22;46141;52.382;5.270;2022-09-09T01:29:26;23.90;69.30
60287;DHT22;46141;52.382;5.270;2022-09-09T01:32:02;23.80;69.20
60287;DHT22;46141;52.382;5.270;2022-09-09T01:34:47;23.80;69.20
60287;DHT22;46141;52.382;5.270;2022-09-09T01:37:13;23.80;69.30
60287;DHT22;46141;52.382;5.270;2022-09-09T01:39:41;23.80;69.30
60287;DHT22;46141;52.382;5.270;2022-09-09T01:42:12;23.80;69.10
60287;DHT22;46141;52.382;5.270;2022-09-09T01:44:38;23.80;69.40
60287;DHT22;46141;52.382;5.270;2022-09-09T01:47:04;23.80;69.30
60287;DHT22;46141;52.382;5.270;2022-09-09T01:49:30;23.80;69.10
60287;DHT22;46141;52.382;5.270;2022-09-09T01:51:57;23.80;69.20
60287;DHT22;46141;52.382;5.270;2022-09-09T01:54:27;23.80;69.30
60287;DHT22;46141;52.382;5.270;2022-09-09T01:57:15;23.80;69.30
60287;DHT22;46141;52.382;5.270;2022-09-09T02:05:25;23.80;69.30
60287;DHT22;46141;52.382;5.270;2022-09-09T02:11:08;23.70;69.30
60287;DHT22;46141;52.382;5.270;2022-09-09T02:13:37;23.70;69.30
60287;DHT22;46141;52.382;5.270;2022-09-09T02:16:27;23.70;69.20
60287;DHT22;46141;52.382;5.270;2022-09-09T02:21:35;23.70;69.10
60287;DHT22;46141;52.382;5.270;2022-09-09T02:24:05;23.70;69.20
60287;DHT22;46141;52.382;5.270;2022-09-09T02:26:40;23.70;69.20
60287;DHT22;46141;52.382;5.270;2022-09-09T02:29:16;23.70;69.20
60287;DHT22;46141;52.382;5.270;2022-09-09T02:31:46;23.70;69.10
60287;DHT22;46141;52.382;5.270;2022-09-09T02:34:14;23.70;69.20
60287;DHT22;46141;52.382;5.270;2022-09-09T02:36:44;23.70;69.10
60287;DHT22;46141;52.382;5.270;2022-09-09T02:39:11;23.70;69.20
60287;DHT22;46141;52.382;5.270;2022-09-09T02:41:40;23.70;69.10
60287;DHT22;46141;52.382;5.270;2022-09-09T02:44:17;23.70;69.20
60287;DHT22;46141;52.382;5.270;2022-09-09T02:55:24;23.60;69.10
60287;DHT22;46141;52.382;5.270;2022-09-09T02:57:55;23.70;69.10
60287;DHT22;46141;52.382;5.270;2022-09-09T03:00:28;23.60;69.00
60287;DHT22;46141;52.382;5.270;2022-09-09T03:02:54;23.60;69.00
60287;DHT22;46141;52.382;5.270;2022-09-09T03:05:21;23.60;69.10
60287;DHT22;46141;52.382;5.270;2022-09-09T03:07:46;23.60;69.10
60287;DHT22;46141;52.382;5.270;2022-09-09T03:10:12;23.60;69.00
60287;DHT22;46141;52.382;5.270;2022-09-09T03:12:37;23.60;69.00
60287;DHT22;46141;52.382;5.270;2022-09-09T03:15:03;23.70;69.10
60287;DHT22;46141;52.382;5.270;2022-09-09T03:17:29;23.60;69.10
60287;DHT22;46141;52.382;5.270;2022-09-09T03:19:54;23.60;69.00
60287;DHT22;46141;52.382;5.270;2022-09-09T03:22:20;23.60;68.90
60287;DHT22;46141;52.382;5.270;2022-09-09T03:24:45;23.60;68.90
60287;DHT22;46141;52.382;5.270;2022-09-09T03:27:11;23.60;69.00
60287;DHT22;46141;52.382;5.270;2022-09-09T03:29:36;23.60;68.90
60287;DHT22;46141;52.382;5.270;2022-09-09T03:32:02;23.60;69.00
60287;DHT22;46141;52.382;5.270;2022-09-09T03:34:28;23.60;68.90
60287;DHT22;46141;52.382;5.270;2022-09-09T03:36:53;23.60;68.90
60287;DHT22;46141;52.382;5.270;2022-09-09T03:39:18;23.60;69.00
60287;DHT22;46141;52.382;5.270;2022-09-09T03:41:44;23.60;68.90
60287;DHT22;46141;52.382;5.270;2022-09-09T03:44:09;23.60;68.90
60287;DHT22;46141;52.382;5.270;2022-09-09T03:46:35;23.50;68.90
60287;DHT22;46141;52.382;5.270;2022-09-09T03:49:00;23.50;68.80
60287;DHT22;46141;52.382;5.270;2022-09-09T03:51:26;23.50;68.90
60287;DHT22;46141;52.382;5.270;2022-09-09T03:53:51;23.50;68.90
60287;DHT22;46141;52.382;5.270;2022-09-09T03:56:17;23.50;68.90
60287;DHT22;46141;52.382;5.270;2022-09-09T03:58:42;23.50;68.90
60287;DHT22;46141;52.382;5.270;2022-09-09T04:01:11;23.50;68.90
60287;DHT22;46141;52.382;5.270;2022-09-09T04:03:36;23.50;68.90
60287;DHT22;46141;52.382;5.270;2022-09-09T04:06:03;23.40;68.90
60287;DHT22;46141;52.382;5.270;2022-09-09T04:08:30;23.40;68.80
60287;DHT22;46141;52.382;5.270;2022-09-09T04:10:56;23.50;69.00
60287;DHT22;46141;52.382;5.270;2022-09-09T04:13:22;23.40;68.90
60287;DHT22;46141;52.382;5.270;2022-09-09T04:15:56;23.50;69.00
60287;DHT22;46141;52.382;5.270;2022-09-09T04:18:23;23.40;68.90
60287;DHT22;46141;52.382;5.270;2022-09-09T04:20:50;23.40;68.90
60287;DHT22;46141;52.382;5.270;2022-09-09T04:23:17;23.40;68.90
60287;DHT22;46141;52.382;5.270;2022-09-09T04:25:47;23.40;68.90
60287;DHT22;46141;52.382;5.270;2022-09-09T04:28:14;23.40;68.90
60287;DHT22;46141;52.382;5.270;2022-09-09T04:30:41;23.40;68.90
60287;DHT22;46141;52.382;5.270;2022-09-09T04:33:07;23.40;68.90
60287;DHT22;46141;52.382;5.270;2022-09-09T04:35:33;23.40;68.90
60287;DHT22;46141;52.382;5.270;2022-09-09T04:37:59;23.40;68.90
60287;DHT22;46141;52.382;5.270;2022-09-09T04:40:25;23.40;68.90
60287;DHT22;46141;52.382;5.270;2022-09-09T04:42:50;23.40;68.90
60287;DHT22;46141;52.382;5.270;2022-09-09T04:45:16;23.40;68.80
60287;DHT22;46141;52.382;5.270;2022-09-09T04:47:41;23.40;68.70
60287;DHT22;46141;52.382;5.270;2022-09-09T04:50:07;23.40;68.70
60287;DHT22;46141;52.382;5.270;2022-09-09T04:52:36;23.40;68.70
60287;DHT22;46141;52.382;5.270;2022-09-09T04:55:02;23.40;68.80
60287;DHT22;46141;52.382;5.270;2022-09-09T04:57:28;23.40;68.80
60287;DHT22;46141;52.382;5.270;2022-09-09T04:59:54;23.40;68.70
60287;DHT22;46141;52.382;5.270;2022-09-09T05:02:20;23.40;68.60
60287;DHT22;46141;52.382;5.270;2022-09-09T05:04:45;23.30;68.70
60287;DHT22;46141;52.382;5.270;2022-09-09T05:07:11;23.30;68.50
60287;DHT22;46141;52.382;5.270;2022-09-09T05:09:36;23.30;68.60
60287;DHT22;46141;52.382;5.270;2022-09-09T05:12:02;23.30;68.70
60287;DHT22;46141;52.382;5.270;2022-09-09T05:14:27;23.30;68.70
60287;DHT22;46141;52.382;5.270;2022-09-09T05:16:53;23.30;68.70
60287;DHT22;46141;52.382;5.270;2022-09-09T05:19:18;23.30;68.80
60287;DHT22;46141;52.382;5.270;2022-09-09T05:21:44;23.30;68.60
60287;DHT22;46141;52.382;5.270;2022-09-09T05:24:09;23.30;68.60
60287;DHT22;46141;52.382;5.270;2022-09-09T05:26:35;23.30;68.60
60287;DHT22;46141;52.382;5.270;2022-09-09T05:29:00;23.30;68.70
60287;DHT22;46141;52.382;5.270;2022-09-09T05:31:26;23.30;68.80
60287;DHT22;46141;52.382;5.270;2022-09-09T05:33:51;23.30;68.60
60287;DHT22;46141;52.382;5.270;2022-09-09T05:36:19;23.20;68.50
60287;DHT22;46141;52.382;5.270;2022-09-09T05:38:46;23.30;68.50
60287;DHT22;46141;52.382;5.270;2022-09-09T05:41:13;23.30;68.40
60287;DHT22;46141;52.382;5.270;2022-09-09T05:43:39;23.30;68.50
60287;DHT22;46141;52.382;5.270;2022-09-09T05:46:10;23.20;68.50
60287;DHT22;46141;52.382;5.270;2022-09-09T05:48:39;23.20;68.50
60287;DHT22;46141;52.382;5.270;2022-09-09T05:51:08;23.20;68.80
60287;DHT22;46141;52.382;5.270;2022-09-09T05:53:34;23.20;68.70
60287;DHT22;46141;52.382;5.270;2022-09-09T05:56:08;23.20;68.70
60287;DHT22;46141;52.382;5.270;2022-09-09T05:58:34;23.20;68.80
60287;DHT22;46141;52.382;5.270;2022-09-09T06:01:11;23.20;68.60
60287;DHT22;46141;52.382;5.270;2022-09-09T06:03:39;23.20;68.60
60287;DHT22;46141;52.382;5.270;2022-09-09T06:06:11;23.20;68.50
60287;DHT22;46141;52.382;5.270;2022-09-09T06:08:38;23.20;68.70
60287;DHT22;46141;52.382;5.270;2022-09-09T06:11:06;23.20;68.70
60287;DHT22;46141;52.382;5.270;2022-09-09T06:13:32;23.20;68.80
60287;DHT22;46141;52.382;5.270;2022-09-09T06:15:59;23.20;68.60
60287;DHT22;46141;52.382;5.270;2022-09-09T06:18:25;23.10;68.60
60287;DHT22;46141;52.382;5.270;2022-09-09T06:20:56;23.10;68.60
60287;DHT22;46141;52.382;5.270;2022-09-09T06:23:22;23.10;68.70
60287;DHT22;46141;52.382;5.270;2022-09-09T06:25:48;23.20;69.10
60287;DHT22;46141;52.382;5.270;2022-09-09T06:28:13;23.10;69.30
60287;DHT22;46141;52.382;5.270;2022-09-09T06:30:39;23.10;69.40
60287;DHT22;46141;52.382;5.270;2022-09-09T06:33:04;23.10;69.40
60287;DHT22;46141;52.382;5.270;2022-09-09T06:35:30;23.10;69.60
60287;DHT22;46141;52.382;5.270;2022-09-09T06:37:55;23.00;69.70
60287;DHT22;46141;52.382;5.270;2022-09-09T06:40:21;23.00;69.90
60287;DHT22;46141;52.382;5.270;2022-09-09T06:42:46;23.00;69.90
60287;DHT22;46141;52.382;5.270;2022-09-09T06:45:12;23.00;69.90
60287;DHT22;46141;52.382;5.270;2022-09-09T06:47:37;23.00;70.00
60287;DHT22;46141;52.382;5.270;2022-09-09T06:50:03;23.00;70.00
60287;DHT22;46141;52.382;5.270;2022-09-09T06:52:28;23.00;70.20
60287;DHT22;46141;52.382;5.270;2022-09-09T06:54:54;23.00;70.20
60287;DHT22;46141;52.382;5.270;2022-09-09T06:57:19;23.00;70.20
60287;DHT22;46141;52.382;5.270;2022-09-09T06:59:45;23.00;70.30
60287;DHT22;46141;52.382;5.270;2022-09-09T07:02:10;23.00;70.40
60287;DHT22;46141;52.382;5.270;2022-09-09T07:04:36;22.90;70.70
60287;DHT22;46141;52.382;5.270;2022-09-09T07:07:01;22.90;70.50
60287;DHT22;46141;52.382;5.270;2022-09-09T07:09:27;22.90;70.50
60287;DHT22;46141;52.382;5.270;2022-09-09T07:11:52;22.90;70.60
60287;DHT22;46141;52.382;5.270;2022-09-09T07:14:18;22.90;70.70
60287;DHT22;46141;52.382;5.270;2022-09-09T07:16:45;22.90;70.80
60287;DHT22;46141;52.382;5.270;2022-09-09T07:19:11;22.90;70.90
60287;DHT22;46141;52.382;5.270;2022-09-09T07:21:37;22.90;71.00
60287;DHT22;46141;52.382;5.270;2022-09-09T07:24:03;22.90;71.00
60287;DHT22;46141;52.382;5.270;2022-09-09T07:26:30;22.90;71.10
60287;DHT22;46141;52.382;5.270;2022-09-09T07:28:56;22.90;71.10
60287;DHT22;46141;52.382;5.270;2022-09-09T07:31:31;22.90;71.00
60287;DHT22;46141;52.382;5.270;2022-09-09T07:33:58;22.90;71.20
60287;DHT22;46141;52.382;5.270;2022-09-09T07:36:27;22.90;71.40
60287;DHT22;46141;52.382;5.270;2022-09-09T07:39:02;22.90;71.60
60287;DHT22;46141;52.382;5.270;2022-09-09T07:41:31;22.90;71.50
60287;DHT22;46141;52.382;5.270;2022-09-09T07:43:57;22.90;71.50
60287;DHT22;46141;52.382;5.270;2022-09-09T07:46:25;22.90;71.50
60287;DHT22;46141;52.382;5.270;2022-09-09T07:48:53;22.90;71.90
60287;DHT22;46141;52.382;5.270;2022-09-09T07:51:22;22.90;71.90
60287;DHT22;46141;52.382;5.270;2022-09-09T07:53:52;22.90;71.90
60287;DHT22;46141;52.382;5.270;2022-09-09T07:56:19;22.90;71.90
60287;DHT22;46141;52.382;5.270;2022-09-09T07:58:46;22.90;71.90
60287;DHT22;46141;52.382;5.270;2022-09-09T08:01:24;22.90;72.00
60287;DHT22;46141;52.382;5.270;2022-09-09T08:04:04;22.90;72.20
60287;DHT22;46141;52.382;5.270;2022-09-09T08:06:35;22.90;72.00
60287;DHT22;46141;52.382;5.270;2022-09-09T08:09:01;22.90;71.90
60287;DHT22;46141;52.382;5.270;2022-09-09T08:11:28;22.90;71.90
60287;DHT22;46141;52.382;5.270;2022-09-09T08:13:54;22.90;71.80
60287;DHT22;46141;52.382;5.270;2022-09-09T08:16:26;23.00;71.70
60287;DHT22;46141;52.382;5.270;2022-09-09T08:18:52;22.90;71.70
60287;DHT22;46141;52.382;5.270;2022-09-09T08:21:21;22.90;71.70
60287;DHT22;46141;52.382;5.270;2022-09-09T08:23:47;23.00;71.60
60287;DHT22;46141;52.382;5.270;2022-09-09T08:26:16;22.90;71.40
60287;DHT22;46141;52.382;5.270;2022-09-09T08:28:43;23.00;71.40
60287;DHT22;46141;52.382;5.270;2022-09-09T08:31:15;23.00;71.40
60287;DHT22;46141;52.382;5.270;2022-09-09T08:33:42;22.90;71.20
60287;DHT22;46141;52.382;5.270;2022-09-09T08:36:10;23.00;71.10
60287;DHT22;46141;52.382;5.270;2022-09-09T08:38:37;23.00;71.10
60287;DHT22;46141;52.382;5.270;2022-09-09T08:43:38;23.00;71.10
60287;DHT22;46141;52.382;5.270;2022-09-09T08:46:24;23.00;71.20
60287;DHT22;46141;52.382;5.270;2022-09-09T08:51:55;23.00;71.20
60287;DHT22;46141;52.382;5.270;2022-09-09T08:54:22;22.90;71.30
60287;DHT22;46141;52.382;5.270;2022-09-09T08:56:48;22.90;71.20
60287;DHT22;46141;52.382;5.270;2022-09-09T08:59:17;23.00;71.20
60287;DHT22;46141;52.382;5.270;2022-09-09T09:02:00;22.90;71.00
60287;DHT22;46141;52.382;5.270;2022-09-09T09:12:25;22.90;70.90
60287;DHT22;46141;52.382;5.270;2022-09-09T09:14:52;22.90;70.80
60287;DHT22;46141;52.382;5.270;2022-09-09T09:17:25;22.90;70.70
60287;DHT22;46141;52.382;5.270;2022-09-09T09:19:52;23.00;70.60
60287;DHT22;46141;52.382;5.270;2022-09-09T09:22:35;23.00;70.60
60287;DHT22;46141;52.382;5.270;2022-09-09T09:25:23;22.90;70.60
60287;DHT22;46141;52.382;5.270;2022-09-09T09:30:40;22.90;70.50
60287;DHT22;46141;52.382;5.270;2022-09-09T09:33:35;22.90;70.60
60287;DHT22;46141;52.382;5.270;2022-09-09T09:36:05;22.90;70.50
60287;DHT22;46141;52.382;5.270;2022-09-09T09:38:30;22.90;70.50
60287;DHT22;46141;52.382;5.270;2022-09-09T09:40:58;22.90;70.70
60287;DHT22;46141;52.382;5.270;2022-09-09T09:43:28;22.90;70.60
60287;DHT22;46141;52.382;5.270;2022-09-09T09:45:54;22.90;70.60
60287;DHT22;46141;52.382;5.270;2022-09-09T09:48:20;22.90;70.70
60287;DHT22;46141;52.382;5.270;2022-09-09T09:51:10;22.90;70.70
60287;DHT22;46141;52.382;5.270;2022-09-09T09:53:38;22.80;70.70
60287;DHT22;46141;52.382;5.270;2022-09-09T09:56:10;22.90;70.80
60287;DHT22;46141;52.382;5.270;2022-09-09T10:03:53;22.80;70.80
60287;DHT22;46141;52.382;5.270;2022-09-09T10:06:33;22.80;71.00
60287;DHT22;46141;52.382;5.270;2022-09-09T10:09:00;22.80;71.00
60287;DHT22;46141;52.382;5.270;2022-09-09T10:11:55;22.80;71.10
60287;DHT22;46141;52.382;5.270;2022-09-09T10:14:49;22.80;71.10
60287;DHT22;46141;52.382;5.270;2022-09-09T10:22:49;22.80;71.40
60287;DHT22;46141;52.382;5.270;2022-09-09T10:25:35;22.70;71.50
60287;DHT22;46141;52.382;5.270;2022-09-09T10:28:29;22.70;71.60
60287;DHT22;46141;52.382;5.270;2022-09-09T10:33:42;22.80;71.60
60287;DHT22;46141;52.382;5.270;2022-09-09T10:36:20;22.70;71.70
60287;DHT22;46141;52.382;5.270;2022-09-09T10:39:13;22.70;71.80
60287;DHT22;46141;52.382;5.270;2022-09-09T10:41:51;22.70;71.90
60287;DHT22;46141;52.382;5.270;2022-09-09T10:56:01;22.80;72.30
60287;DHT22;46141;52.382;5.270;2022-09-09T10:58:52;22.80;72.30
60287;DHT22;46141;52.382;5.270;2022-09-09T11:01:25;22.80;72.40
60287;DHT22;46141;52.382;5.270;2022-09-09T11:03:59;22.80;72.40
60287;DHT22;46141;52.382;5.270;2022-09-09T11:06:37;22.80;72.40
60287;DHT22;46141;52.382;5.270;2022-09-09T11:09:05;22.80;72.40
60287;DHT22;46141;52.382;5.270;2022-09-09T11:11:54;22.80;72.50
60287;DHT22;46141;52.382;5.270;2022-09-09T11:14:43;22.90;72.70
60287;DHT22;46141;52.382;5.270;2022-09-09T11:17:20;22.90;73.30
60287;DHT22;46141;52.382;5.270;2022-09-09T11:19:47;22.90;73.60
60287;DHT22;46141;52.382;5.270;2022-09-09T11:24:57;23.00;73.50
60287;DHT22;46141;52.382;5.270;2022-09-09T11:38:53;23.10;73.50
60287;DHT22;46141;52.382;5.270;2022-09-09T11:41:22;23.10;73.40
60287;DHT22;46141;52.382;5.270;2022-09-09T11:43:51;23.10;73.50
60287;DHT22;46141;52.382;5.270;2022-09-09T11:46:20;23.10;73.40
60287;DHT22;46141;52.382;5.270;2022-09-09T11:49:02;23.10;73.40
60287;DHT22;46141;52.382;5.270;2022-09-09T11:51:30;23.10;73.30
60287;DHT22;46141;52.382;5.270;2022-09-09T11:54:25;23.10;73.20
60287;DHT22;46141;52.382;5.270;2022-09-09T11:56:46;23.10;73.20
60287;DHT22;46141;52.382;5.270;2022-09-09T11:59:28;23.10;73.20
60287;DHT22;46141;52.382;5.270;2022-09-09T12:02:01;23.10;73.10
60287;DHT22;46141;52.382;5.270;2022-09-09T12:04:32;23.20;73.10
60287;DHT22;46141;52.382;5.270;2022-09-09T12:07:51;23.10;73.20
60287;DHT22;46141;52.382;5.270;2022-09-09T12:10:19;23.10;73.20
60287;DHT22;46141;52.382;5.270;2022-09-09T12:12:45;23.10;73.20
60287;DHT22;46141;52.382;5.270;2022-09-09T12:17:51;23.10;73.20
60287;DHT22;46141;52.382;5.270;2022-09-09T12:20:37;23.10;73.30
60287;DHT22;46141;52.382;5.270;2022-09-09T12:31:50;23.10;73.30
60287;DHT22;46141;52.382;5.270;2022-09-09T12:36:57;23.10;73.50
60287;DHT22;46141;52.382;5.270;2022-09-09T12:39:34;23.10;73.50
60287;DHT22;46141;52.382;5.270;2022-09-09T12:42:00;23.20;73.60
60287;DHT22;46141;52.382;5.270;2022-09-09T12:44:26;23.20;73.60
60287;DHT22;46141;52.382;5.270;2022-09-09T12:46:53;23.20;73.80
60287;DHT22;46141;52.382;5.270;2022-09-09T12:49:34;23.20;74.10
60287;DHT22;46141;52.382;5.270;2022-09-09T12:52:48;23.20;74.10
60287;DHT22;46141;52.382;5.270;2022-09-09T12:54:48;23.20;74.30
60287;DHT22;46141;52.382;5.270;2022-09-09T12:57:15;23.20;74.20
60287;DHT22;46141;52.382;5.270;2022-09-09T12:59:43;23.20;74.20
60287;DHT22;46141;52.382;5.270;2022-09-09T13:02:19;23.20;74.20
60287;DHT22;46141;52.382;5.270;2022-09-09T13:04:46;23.20;74.30
60287;DHT22;46141;52.382;5.270;2022-09-09T13:07:12;23.20;74.40
60287;DHT22;46141;52.382;5.270;2022-09-09T13:09:38;23.20;74.40
60287;DHT22;46141;52.382;5.270;2022-09-09T13:12:05;23.20;74.20
60287;DHT22;46141;52.382;5.270;2022-09-09T13:14:35;23.20;74.20
60287;DHT22;46141;52.382;5.270;2022-09-09T13:17:03;23.20;74.20
60287;DHT22;46141;52.382;5.270;2022-09-09T13:19:34;23.20;74.10
60287;DHT22;46141;52.382;5.270;2022-09-09T13:22:12;23.20;74.30
60287;DHT22;46141;52.382;5.270;2022-09-09T13:24:37;23.20;73.90
60287;DHT22;46141;52.382;5.270;2022-09-09T13:27:20;23.20;74.10
60287;DHT22;46141;52.382;5.270;2022-09-09T13:29:53;23.20;74.10
60287;DHT22;46141;52.382;5.270;2022-09-09T13:32:19;23.20;74.10
60287;DHT22;46141;52.382;5.270;2022-09-09T13:34:56;23.30;74.10
60287;DHT22;46141;52.382;5.270;2022-09-09T13:39:55;23.20;74.00
60287;DHT22;46141;52.382;5.270;2022-09-09T13:42:32;23.20;74.10
60287;DHT22;46141;52.382;5.270;2022-09-09T13:44:59;23.30;74.30
60287;DHT22;46141;52.382;5.270;2022-09-09T13:47:36;23.20;74.60
60287;DHT22;46141;52.382;5.270;2022-09-09T13:50:30;23.10;74.70
60287;DHT22;46141;52.382;5.270;2022-09-09T13:52:58;23.20;74.80
60287;DHT22;46141;52.382;5.270;2022-09-09T13:55:26;23.20;74.80
60287;DHT22;46141;52.382;5.270;2022-09-09T13:58:00;23.20;74.80
60287;DHT22;46141;52.382;5.270;2022-09-09T14:00:29;23.20;74.90
60287;DHT22;46141;52.382;5.270;2022-09-09T14:02:55;23.20;74.90
60287;DHT22;46141;52.382;5.270;2022-09-09T14:05:22;23.20;75.10
60287;DHT22;46141;52.382;5.270;2022-09-09T14:07:49;23.20;75.20
60287;DHT22;46141;52.382;5.270;2022-09-09T14:10:15;23.20;75.30
60287;DHT22;46141;52.382;5.270;2022-09-09T14:12:41;23.20;75.20
60287;DHT22;46141;52.382;5.270;2022-09-09T14:15:09;23.20;75.10
60287;DHT22;46141;52.382;5.270;2022-09-09T14:17:35;23.20;75.20
60287;DHT22;46141;52.382;5.270;2022-09-09T14:20:02;23.20;75.80
60287;DHT22;46141;52.382;5.270;2022-09-09T14:22:28;23.20;75.30
60287;DHT22;46141;52.382;5.270;2022-09-09T14:24:53;23.20;75.40
60287;DHT22;46141;52.382;5.270;2022-09-09T14:27:19;23.20;75.30
60287;DHT22;46141;52.382;5.270;2022-09-09T14:29:44;23.20;75.20
60287;DHT22;46141;52.382;5.270;2022-09-09T14:32:11;23.20;75.20
60287;DHT22;46141;52.382;5.270;2022-09-09T14:34:36;23.20;75.20
60287;DHT22;46141;52.382;5.270;2022-09-09T14:37:02;23.20;75.30
60287;DHT22;46141;52.382;5.270;2022-09-09T14:39:27;23.20;75.40
60287;DHT22;46141;52.382;5.270;2022-09-09T14:41:53;23.20;75.20
60287;DHT22;46141;52.382;5.270;2022-09-09T14:44:19;23.20;75.20
60287;DHT22;46141;52.382;5.270;2022-09-09T14:46:44;23.20;75.30
60287;DHT22;46141;52.382;5.270;2022-09-09T14:49:10;23.20;76.00
60287;DHT22;46141;52.382;5.270;2022-09-09T14:51:36;23.20;75.40
60287;DHT22;46141;52.382;5.270;2022-09-09T14:54:02;23.20;75.40
60287;DHT22;46141;52.382;5.270;2022-09-09T14:56:31;23.20;75.30
60287;DHT22;46141;52.382;5.270;2022-09-09T14:58:58;23.20;75.30
60287;DHT22;46141;52.382;5.270;2022-09-09T15:01:25;23.20;75.20
60287;DHT22;46141;52.382;5.270;2022-09-09T15:03:56;23.20;75.20
60287;DHT22;46141;52.382;5.270;2022-09-09T15:06:23;23.20;75.20
60287;DHT22;46141;52.382;5.270;2022-09-09T15:08:51;23.20;75.10
60287;DHT22;46141;52.382;5.270;2022-09-09T15:11:16;23.30;75.10
60287;DHT22;46141;52.382;5.270;2022-09-09T15:13:43;23.30;75.10
60287;DHT22;46141;52.382;5.270;2022-09-09T15:16:14;23.30;75.00
60287;DHT22;46141;52.382;5.270;2022-09-09T15:18:40;23.30;75.00
60287;DHT22;46141;52.382;5.270;2022-09-09T15:21:06;23.30;75.20
60287;DHT22;46141;52.382;5.270;2022-09-09T15:23:33;23.30;75.10
60287;DHT22;46141;52.382;5.270;2022-09-09T15:25:59;23.30;75.20
60287;DHT22;46141;52.382;5.270;2022-09-09T15:28:24;23.20;75.30
60287;DHT22;46141;52.382;5.270;2022-09-09T15:30:52;23.20;75.40
60287;DHT22;46141;52.382;5.270;2022-09-09T15:33:19;23.20;75.60
60287;DHT22;46141;52.382;5.270;2022-09-09T15:35:44;23.30;75.80
60287;DHT22;46141;52.382;5.270;2022-09-09T15:38:10;23.30;75.80
60287;DHT22;46141;52.382;5.270;2022-09-09T15:40:36;23.30;75.80
60287;DHT22;46141;52.382;5.270;2022-09-09T15:43:01;23.30;75.80
60287;DHT22;46141;52.382;5.270;2022-09-09T15:45:27;23.30;75.70
60287;DHT22;46141;52.382;5.270;2022-09-09T15:47:52;23.30;75.70
60287;DHT22;46141;52.382;5.270;2022-09-09T15:50:18;23.30;75.70
60287;DHT22;46141;52.382;5.270;2022-09-09T15:52:44;23.30;75.60
60287;DHT22;46141;52.382;5.270;2022-09-09T15:55:09;23.30;75.70
60287;DHT22;46141;52.382;5.270;2022-09-09T15:57:35;23.30;75.60
60287;DHT22;46141;52.382;5.270;2022-09-09T16:00:02;23.30;75.60
60287;DHT22;46141;52.382;5.270;2022-09-09T16:02:28;23.30;75.60
60287;DHT22;46141;52.382;5.270;2022-09-09T16:04:53;23.30;75.50
60287;DHT22;46141;52.382;5.270;2022-09-09T16:07:19;23.20;75.30
60287;DHT22;46141;52.382;5.270;2022-09-09T16:09:44;23.20;75.20
60287;DHT22;46141;52.382;5.270;2022-09-09T16:12:10;23.30;75.20
60287;DHT22;46141;52.382;5.270;2022-09-09T16:14:35;23.30;75.00
60287;DHT22;46141;52.382;5.270;2022-09-09T16:17:03;23.30;74.90
60287;DHT22;46141;52.382;5.270;2022-09-09T16:19:28;23.30;75.50
60287;DHT22;46141;52.382;5.270;2022-09-09T16:21:54;23.30;74.90
60287;DHT22;46141;52.382;5.270;2022-09-09T16:24:20;23.30;74.80
60287;DHT22;46141;52.382;5.270;2022-09-09T16:26:50;23.40;74.80
60287;DHT22;46141;52.382;5.270;2022-09-09T16:29:18;23.30;75.00
60287;DHT22;46141;52.382;5.270;2022-09-09T16:31:48;23.40;75.00
60287;DHT22;46141;52.382;5.270;2022-09-09T16:34:15;23.30;75.30
60287;DHT22;46141;52.382;5.270;2022-09-09T16:36:42;23.30;75.20
60287;DHT22;46141;52.382;5.270;2022-09-09T16:39:10;23.30;75.20
60287;DHT22;46141;52.382;5.270;2022-09-09T16:41:37;23.30;75.10
60287;DHT22;46141;52.382;5.270;2022-09-09T16:44:06;23.30;75.00
60287;DHT22;46141;52.382;5.270;2022-09-09T16:46:35;23.30;75.20
60287;DHT22;46141;52.382;5.270;2022-09-09T16:49:03;23.30;76.20
60287;DHT22;46141;52.382;5.270;2022-09-09T16:51:32;23.30;76.40
60287;DHT22;46141;52.382;5.270;2022-09-09T16:54:00;23.20;76.70
60287;DHT22;46141;52.382;5.270;2022-09-09T16:56:28;23.20;76.70
60287;DHT22;46141;52.382;5.270;2022-09-09T16:58:57;23.20;76.40
60287;DHT22;46141;52.382;5.270;2022-09-09T17:01:28;23.30;76.50
60287;DHT22;46141;52.382;5.270;2022-09-09T17:04:00;23.20;76.40
60287;DHT22;46141;52.382;5.270;2022-09-09T17:06:27;23.20;76.60
60287;DHT22;46141;52.382;5.270;2022-09-09T17:08:59;23.20;77.00
60287;DHT22;46141;52.382;5.270;2022-09-09T17:11:25;23.20;77.30
60287;DHT22;46141;52.382;5.270;2022-09-09T17:13:52;23.20;78.10
60287;DHT22;46141;52.382;5.270;2022-09-09T17:16:20;23.20;77.70
60287;DHT22;46141;52.382;5.270;2022-09-09T17:18:46;23.20;78.20
60287;DHT22;46141;52.382;5.270;2022-09-09T17:21:17;23.20;78.40
60287;DHT22;46141;52.382;5.270;2022-09-09T17:23:43;23.20;78.60
60287;DHT22;46141;52.382;5.270;2022-09-09T17:26:12;23.20;79.00
60287;DHT22;46141;52.382;5.270;2022-09-09T17:28:39;23.10;79.20
60287;DHT22;46141;52.382;5.270;2022-09-09T17:31:07;23.20;79.70
60287;DHT22;46141;52.382;5.270;2022-09-09T17:33:34;23.10;79.20
60287;DHT22;46141;52.382;5.270;2022-09-09T17:36:28;23.10;79.40
60287;DHT22;46141;52.382;5.270;2022-09-09T17:38:54;23.10;79.50
60287;DHT22;46141;52.382;5.270;2022-09-09T17:41:29;23.10;79.70
60287;DHT22;46141;52.382;5.270;2022-09-09T17:43:55;23.10;79.70
60287;DHT22;46141;52.382;5.270;2022-09-09T17:46:23;23.10;79.90
60287;DHT22;46141;52.382;5.270;2022-09-09T17:48:52;23.10;79.80